Terminal Aerodrome Forecast
Issued by NWS Houston/Galveston, TX

Home | Current Version | Previous Version | Text Only | Print | Product List | Glossary On
Versions: 1 2 3 4 5 6 7 8 9 10 11 12 13 14
000
FTUS44 KHGX 190939 AAA
TAFCLL
TAF AMD
KCLL 190939Z 1910/2006 14003KT P6SM SCT250
     FM191400 12007KT P6SM FEW015 SCT030 SCT250
     FM200300 12006KT P6SM FEW035 BKN080=

USA.gov is the U.S. government's official web portal to all federal, state and local government web resources and services.